sensor_id;sensor_type;location;lat;lon;timestamp;P1;durP1;ratioP1;P2;durP2;ratioP2
68072;SDS011;54862;51.502;7.446;2022-07-12T00:02:10;5.88;;;2.30;;
68072;SDS011;54862;51.502;7.446;2022-07-12T00:04:37;5.93;;;2.30;;
68072;SDS011;54862;51.502;7.446;2022-07-12T00:07:03;4.20;;;2.30;;
68072;SDS011;54862;51.502;7.446;2022-07-12T00:09:29;4.80;;;2.40;;
68072;SDS011;54862;51.502;7.446;2022-07-12T00:11:55;3.83;;;2.20;;
68072;SDS011;54862;51.502;7.446;2022-07-12T00:14:23;3.92;;;1.98;;
68072;SDS011;54862;51.502;7.446;2022-07-12T00:16:49;4.60;;;2.30;;
68072;SDS011;54862;51.502;7.446;2022-07-12T00:19:15;2.63;;;2.08;;
68072;SDS011;54862;51.502;7.446;2022-07-12T00:21:41;5.18;;;2.60;;
68072;SDS011;54862;51.502;7.446;2022-07-12T00:24:06;3.85;;;2.28;;
68072;SDS011;54862;51.502;7.446;2022-07-12T00:26:33;4.43;;;2.30;;
68072;SDS011;54862;51.502;7.446;2022-07-12T00:28:59;6.10;;;2.45;;
68072;SDS011;54862;51.502;7.446;2022-07-12T00:31:24;4.85;;;2.30;;
68072;SDS011;54862;51.502;7.446;2022-07-12T00:33:51;4.22;;;2.58;;
68072;SDS011;54862;51.502;7.446;2022-07-12T00:36:17;3.90;;;2.30;;
68072;SDS011;54862;51.502;7.446;2022-07-12T00:38:44;5.22;;;2.60;;
68072;SDS011;54862;51.502;7.446;2022-07-12T00:41:10;4.90;;;2.47;;
68072;SDS011;54862;51.502;7.446;2022-07-12T00:43:36;3.97;;;2.50;;
68072;SDS011;54862;51.502;7.446;2022-07-12T00:46:02;5.53;;;2.78;;
68072;SDS011;54862;51.502;7.446;2022-07-12T00:48:28;5.10;;;2.95;;
68072;SDS011;54862;51.502;7.446;2022-07-12T00:50:54;4.78;;;2.80;;
68072;SDS011;54862;51.502;7.446;2022-07-12T00:53:20;7.45;;;2.90;;
68072;SDS011;54862;51.502;7.446;2022-07-12T00:55:52;5.90;;;2.80;;
68072;SDS011;54862;51.502;7.446;2022-07-12T00:58:18;4.88;;;2.60;;
68072;SDS011;54862;51.502;7.446;2022-07-12T01:00:44;5.28;;;2.53;;
68072;SDS011;54862;51.502;7.446;2022-07-12T01:03:10;5.53;;;2.78;;
68072;SDS011;54862;51.502;7.446;2022-07-12T01:05:36;5.63;;;2.90;;
68072;SDS011;54862;51.502;7.446;2022-07-12T01:08:02;6.07;;;2.88;;
68072;SDS011;54862;51.502;7.446;2022-07-12T01:10:29;5.70;;;3.05;;
68072;SDS011;54862;51.502;7.446;2022-07-12T01:12:58;6.57;;;3.10;;
68072;SDS011;54862;51.502;7.446;2022-07-12T01:15:26;6.72;;;3.03;;
68072;SDS011;54862;51.502;7.446;2022-07-12T01:17:52;5.68;;;2.58;;
68072;SDS011;54862;51.502;7.446;2022-07-12T01:20:18;5.53;;;3.03;;
68072;SDS011;54862;51.502;7.446;2022-07-12T01:22:54;4.82;;;2.60;;
68072;SDS011;54862;51.502;7.446;2022-07-12T01:25:22;5.40;;;2.70;;
68072;SDS011;54862;51.502;7.446;2022-07-12T01:27:48;5.95;;;2.78;;
68072;SDS011;54862;51.502;7.446;2022-07-12T01:30:14;5.05;;;2.53;;
68072;SDS011;54862;51.502;7.446;2022-07-12T01:32:40;4.40;;;2.72;;
68072;SDS011;54862;51.502;7.446;2022-07-12T01:35:07;4.47;;;2.40;;
68072;SDS011;54862;51.502;7.446;2022-07-12T01:37:34;4.75;;;2.50;;
68072;SDS011;54862;51.502;7.446;2022-07-12T01:40:00;7.32;;;2.67;;
68072;SDS011;54862;51.502;7.446;2022-07-12T01:42:27;4.72;;;2.40;;
68072;SDS011;54862;51.502;7.446;2022-07-12T01:44:53;3.95;;;2.42;;
68072;SDS011;54862;51.502;7.446;2022-07-12T01:47:20;4.20;;;2.60;;
68072;SDS011;54862;51.502;7.446;2022-07-12T01:49:46;4.88;;;2.40;;
68072;SDS011;54862;51.502;7.446;2022-07-12T01:52:13;4.80;;;2.28;;
68072;SDS011;54862;51.502;7.446;2022-07-12T01:54:39;3.78;;;2.30;;
68072;SDS011;54862;51.502;7.446;2022-07-12T01:57:06;4.35;;;2.15;;
68072;SDS011;54862;51.502;7.446;2022-07-12T01:59:32;3.72;;;2.30;;
68072;SDS011;54862;51.502;7.446;2022-07-12T02:01:58;4.53;;;2.33;;
68072;SDS011;54862;51.502;7.446;2022-07-12T02:04:25;4.97;;;2.22;;
68072;SDS011;54862;51.502;7.446;2022-07-12T02:06:51;4.47;;;2.30;;
68072;SDS011;54862;51.502;7.446;2022-07-12T02:09:17;3.72;;;2.25;;
68072;SDS011;54862;51.502;7.446;2022-07-12T02:11:44;4.95;;;2.63;;
68072;SDS011;54862;51.502;7.446;2022-07-12T02:14:12;3.38;;;2.28;;
68072;SDS011;54862;51.502;7.446;2022-07-12T02:16:38;3.95;;;2.42;;
68072;SDS011;54862;51.502;7.446;2022-07-12T02:19:04;3.88;;;2.20;;
68072;SDS011;54862;51.502;7.446;2022-07-12T02:21:30;3.15;;;2.08;;
68072;SDS011;54862;51.502;7.446;2022-07-12T02:23:56;4.82;;;2.40;;
68072;SDS011;54862;51.502;7.446;2022-07-12T02:26:22;4.97;;;2.35;;
68072;SDS011;54862;51.502;7.446;2022-07-12T02:28:48;3.28;;;2.20;;
68072;SDS011;54862;51.502;7.446;2022-07-12T02:31:15;3.20;;;2.17;;
68072;SDS011;54862;51.502;7.446;2022-07-12T02:33:41;3.10;;;2.20;;
68072;SDS011;54862;51.502;7.446;2022-07-12T02:36:07;4.15;;;2.28;;
68072;SDS011;54862;51.502;7.446;2022-07-12T02:38:33;4.03;;;2.40;;
68072;SDS011;54862;51.502;7.446;2022-07-12T02:40:59;4.15;;;2.38;;
68072;SDS011;54862;51.502;7.446;2022-07-12T02:43:26;3.63;;;2.35;;
68072;SDS011;54862;51.502;7.446;2022-07-12T02:45:53;3.40;;;2.10;;
68072;SDS011;54862;51.502;7.446;2022-07-12T02:48:21;4.78;;;2.60;;
68072;SDS011;54862;51.502;7.446;2022-07-12T02:50:47;3.85;;;2.50;;
68072;SDS011;54862;51.502;7.446;2022-07-12T02:53:14;3.75;;;2.40;;
68072;SDS011;54862;51.502;7.446;2022-07-12T02:55:40;3.50;;;2.08;;
68072;SDS011;54862;51.502;7.446;2022-07-12T02:58:06;6.90;;;2.78;;
68072;SDS011;54862;51.502;7.446;2022-07-12T03:00:33;3.78;;;2.30;;
68072;SDS011;54862;51.502;7.446;2022-07-12T03:02:59;4.55;;;2.55;;
68072;SDS011;54862;51.502;7.446;2022-07-12T03:05:25;4.55;;;2.60;;
68072;SDS011;54862;51.502;7.446;2022-07-12T03:07:51;4.28;;;2.20;;
68072;SDS011;54862;51.502;7.446;2022-07-12T03:10:17;4.53;;;2.45;;
68072;SDS011;54862;51.502;7.446;2022-07-12T03:12:43;6.50;;;2.60;;
68072;SDS011;54862;51.502;7.446;2022-07-12T03:15:09;3.28;;;2.28;;
68072;SDS011;54862;51.502;7.446;2022-07-12T03:17:35;7.15;;;2.70;;
68072;SDS011;54862;51.502;7.446;2022-07-12T03:20:02;3.42;;;2.30;;
68072;SDS011;54862;51.502;7.446;2022-07-12T03:22:31;3.08;;;2.20;;
68072;SDS011;54862;51.502;7.446;2022-07-12T03:24:57;3.72;;;2.55;;
68072;SDS011;54862;51.502;7.446;2022-07-12T03:27:23;3.85;;;2.15;;
68072;SDS011;54862;51.502;7.446;2022-07-12T03:29:50;4.63;;;2.53;;
68072;SDS011;54862;51.502;7.446;2022-07-12T03:32:16;6.35;;;2.40;;
68072;SDS011;54862;51.502;7.446;2022-07-12T03:34:42;3.53;;;2.15;;
68072;SDS011;54862;51.502;7.446;2022-07-12T03:37:08;4.40;;;2.70;;
68072;SDS011;54862;51.502;7.446;2022-07-12T03:39:34;3.97;;;2.50;;
68072;SDS011;54862;51.502;7.446;2022-07-12T03:41:59;4.65;;;2.40;;
68072;SDS011;54862;51.502;7.446;2022-07-12T03:44:25;3.95;;;2.30;;
68072;SDS011;54862;51.502;7.446;2022-07-12T03:46:52;3.97;;;2.38;;
68072;SDS011;54862;51.502;7.446;2022-07-12T03:49:18;4.93;;;2.50;;
68072;SDS011;54862;51.502;7.446;2022-07-12T03:51:44;4.40;;;2.40;;
68072;SDS011;54862;51.502;7.446;2022-07-12T03:54:10;6.28;;;2.38;;
68072;SDS011;54862;51.502;7.446;2022-07-12T03:56:36;3.55;;;2.40;;
68072;SDS011;54862;51.502;7.446;2022-07-12T03:59:21;6.88;;;2.42;;
68072;SDS011;54862;51.502;7.446;2022-07-12T04:01:47;4.05;;;2.20;;
68072;SDS011;54862;51.502;7.446;2022-07-12T04:04:13;4.85;;;2.53;;
68072;SDS011;54862;51.502;7.446;2022-07-12T04:06:39;4.35;;;2.28;;
68072;SDS011;54862;51.502;7.446;2022-07-12T04:09:05;4.80;;;2.63;;
68072;SDS011;54862;51.502;7.446;2022-07-12T04:11:32;4.88;;;2.65;;
68072;SDS011;54862;51.502;7.446;2022-07-12T04:13:58;4.15;;;2.50;;
68072;SDS011;54862;51.502;7.446;2022-07-12T04:16:24;5.20;;;2.60;;
68072;SDS011;54862;51.502;7.446;2022-07-12T04:18:51;5.22;;;2.58;;
68072;SDS011;54862;51.502;7.446;2022-07-12T04:21:19;4.93;;;2.60;;
68072;SDS011;54862;51.502;7.446;2022-07-12T04:23:45;3.75;;;2.60;;
68072;SDS011;54862;51.502;7.446;2022-07-12T04:26:11;4.82;;;2.60;;
68072;SDS011;54862;51.502;7.446;2022-07-12T04:28:37;6.43;;;2.60;;
68072;SDS011;54862;51.502;7.446;2022-07-12T04:31:03;5.00;;;2.55;;
68072;SDS011;54862;51.502;7.446;2022-07-12T04:33:29;6.32;;;2.88;;
68072;SDS011;54862;51.502;7.446;2022-07-12T04:35:55;5.88;;;3.03;;
68072;SDS011;54862;51.502;7.446;2022-07-12T04:38:21;4.70;;;2.65;;
68072;SDS011;54862;51.502;7.446;2022-07-12T04:40:47;6.47;;;3.00;;
68072;SDS011;54862;51.502;7.446;2022-07-12T04:43:13;6.57;;;2.67;;
68072;SDS011;54862;51.502;7.446;2022-07-12T04:45:39;8.20;;;3.15;;
68072;SDS011;54862;51.502;7.446;2022-07-12T04:48:09;6.88;;;3.15;;
68072;SDS011;54862;51.502;7.446;2022-07-12T04:50:35;7.03;;;3.00;;
68072;SDS011;54862;51.502;7.446;2022-07-12T04:53:01;5.60;;;2.80;;
68072;SDS011;54862;51.502;7.446;2022-07-12T04:55:27;5.78;;;2.97;;
68072;SDS011;54862;51.502;7.446;2022-07-12T04:57:53;6.72;;;2.80;;
68072;SDS011;54862;51.502;7.446;2022-07-12T05:00:19;5.97;;;3.10;;
68072;SDS011;54862;51.502;7.446;2022-07-12T05:02:45;5.60;;;2.65;;
68072;SDS011;54862;51.502;7.446;2022-07-12T05:05:11;6.45;;;3.22;;
68072;SDS011;54862;51.502;7.446;2022-07-12T05:07:37;5.90;;;3.15;;
68072;SDS011;54862;51.502;7.446;2022-07-12T05:10:03;4.90;;;2.80;;
68072;SDS011;54862;51.502;7.446;2022-07-12T05:12:29;6.22;;;3.17;;
68072;SDS011;54862;51.502;7.446;2022-07-12T05:14:55;4.63;;;2.65;;
68072;SDS011;54862;51.502;7.446;2022-07-12T05:17:21;4.55;;;2.53;;
68072;SDS011;54862;51.502;7.446;2022-07-12T05:19:47;7.03;;;3.00;;
68072;SDS011;54862;51.502;7.446;2022-07-12T05:22:13;6.25;;;2.97;;
68072;SDS011;54862;51.502;7.446;2022-07-12T05:24:39;5.85;;;3.17;;
68072;SDS011;54862;51.502;7.446;2022-07-12T05:27:05;5.60;;;3.00;;
68072;SDS011;54862;51.502;7.446;2022-07-12T05:29:31;7.78;;;3.55;;
68072;SDS011;54862;51.502;7.446;2022-07-12T05:31:57;9.50;;;4.10;;
68072;SDS011;54862;51.502;7.446;2022-07-12T05:34:23;6.53;;;3.53;;
68072;SDS011;54862;51.502;7.446;2022-07-12T05:36:49;6.45;;;3.50;;
68072;SDS011;54862;51.502;7.446;2022-07-12T05:39:15;8.07;;;3.55;;
68072;SDS011;54862;51.502;7.446;2022-07-12T05:41:41;6.95;;;3.60;;
68072;SDS011;54862;51.502;7.446;2022-07-12T05:44:07;6.47;;;3.35;;
68072;SDS011;54862;51.502;7.446;2022-07-12T05:46:33;7.15;;;3.50;;
68072;SDS011;54862;51.502;7.446;2022-07-12T05:48:59;7.78;;;3.83;;
68072;SDS011;54862;51.502;7.446;2022-07-12T05:51:25;10.07;;;4.30;;
68072;SDS011;54862;51.502;7.446;2022-07-12T05:54:10;7.93;;;3.55;;
68072;SDS011;54862;51.502;7.446;2022-07-12T05:56:36;8.10;;;4.00;;
68072;SDS011;54862;51.502;7.446;2022-07-12T05:59:02;7.93;;;4.15;;
68072;SDS011;54862;51.502;7.446;2022-07-12T06:01:28;8.45;;;4.40;;
68072;SDS011;54862;51.502;7.446;2022-07-12T06:03:54;7.60;;;4.20;;
68072;SDS011;54862;51.502;7.446;2022-07-12T06:06:20;9.38;;;4.43;;
68072;SDS011;54862;51.502;7.446;2022-07-12T06:08:46;7.60;;;4.20;;
68072;SDS011;54862;51.502;7.446;2022-07-12T06:11:12;8.07;;;4.32;;
68072;SDS011;54862;51.502;7.446;2022-07-12T06:13:38;10.85;;;4.82;;
68072;SDS011;54862;51.502;7.446;2022-07-12T06:16:04;7.93;;;4.47;;
68072;SDS011;54862;51.502;7.446;2022-07-12T06:18:31;7.70;;;4.30;;
68072;SDS011;54862;51.502;7.446;2022-07-12T06:20:57;7.82;;;4.07;;
68072;SDS011;54862;51.502;7.446;2022-07-12T06:23:23;9.40;;;3.90;;
68072;SDS011;54862;51.502;7.446;2022-07-12T06:25:49;7.55;;;4.20;;
68072;SDS011;54862;51.502;7.446;2022-07-12T06:28:15;7.93;;;4.50;;
68072;SDS011;54862;51.502;7.446;2022-07-12T06:30:41;7.43;;;4.28;;
68072;SDS011;54862;51.502;7.446;2022-07-12T06:33:07;6.97;;;3.80;;
68072;SDS011;54862;51.502;7.446;2022-07-12T06:35:33;7.75;;;3.88;;
68072;SDS011;54862;51.502;7.446;2022-07-12T06:37:59;8.57;;;3.97;;
68072;SDS011;54862;51.502;7.446;2022-07-12T06:40:25;9.95;;;3.90;;
68072;SDS011;54862;51.502;7.446;2022-07-12T06:42:51;6.97;;;3.72;;
68072;SDS011;54862;51.502;7.446;2022-07-12T06:45:17;8.32;;;3.85;;
68072;SDS011;54862;51.502;7.446;2022-07-12T06:47:44;6.70;;;3.88;;
68072;SDS011;54862;51.502;7.446;2022-07-12T06:50:10;7.45;;;4.00;;
68072;SDS011;54862;51.502;7.446;2022-07-12T06:52:36;7.00;;;3.40;;
68072;SDS011;54862;51.502;7.446;2022-07-12T06:55:02;7.97;;;3.90;;
68072;SDS011;54862;51.502;7.446;2022-07-12T06:57:28;7.78;;;3.70;;
68072;SDS011;54862;51.502;7.446;2022-07-12T06:59:57;6.82;;;3.42;;
68072;SDS011;54862;51.502;7.446;2022-07-12T07:02:23;6.82;;;3.55;;
68072;SDS011;54862;51.502;7.446;2022-07-12T07:04:49;5.95;;;3.47;;
68072;SDS011;54862;51.502;7.446;2022-07-12T07:07:15;5.95;;;3.63;;
68072;SDS011;54862;51.502;7.446;2022-07-12T07:09:42;6.53;;;3.75;;
68072;SDS011;54862;51.502;7.446;2022-07-12T07:12:08;6.88;;;3.33;;
68072;SDS011;54862;51.502;7.446;2022-07-12T07:14:34;5.90;;;3.10;;
68072;SDS011;54862;51.502;7.446;2022-07-12T07:17:00;8.23;;;4.57;;
68072;SDS011;54862;51.502;7.446;2022-07-12T07:19:26;6.72;;;3.70;;
68072;SDS011;54862;51.502;7.446;2022-07-12T07:21:53;6.80;;;3.72;;
68072;SDS011;54862;51.502;7.446;2022-07-12T07:24:19;8.40;;;3.95;;
68072;SDS011;54862;51.502;7.446;2022-07-12T07:26:45;10.35;;;4.50;;
68072;SDS011;54862;51.502;7.446;2022-07-12T07:29:11;8.07;;;3.70;;
68072;SDS011;54862;51.502;7.446;2022-07-12T07:31:56;6.32;;;3.33;;
68072;SDS011;54862;51.502;7.446;2022-07-12T07:34:22;6.93;;;3.40;;
68072;SDS011;54862;51.502;7.446;2022-07-12T07:36:49;7.70;;;3.55;;
68072;SDS011;54862;51.502;7.446;2022-07-12T07:39:15;9.20;;;4.20;;
68072;SDS011;54862;51.502;7.446;2022-07-12T07:41:41;8.57;;;3.92;;
68072;SDS011;54862;51.502;7.446;2022-07-12T07:44:07;8.15;;;3.85;;
68072;SDS011;54862;51.502;7.446;2022-07-12T07:46:33;11.65;;;4.50;;
68072;SDS011;54862;51.502;7.446;2022-07-12T07:48:59;7.13;;;3.75;;
68072;SDS011;54862;51.502;7.446;2022-07-12T07:51:25;6.32;;;3.70;;
68072;SDS011;54862;51.502;7.446;2022-07-12T07:53:51;7.20;;;3.53;;
68072;SDS011;54862;51.502;7.446;2022-07-12T07:56:17;8.77;;;3.63;;
68072;SDS011;54862;51.502;7.446;2022-07-12T07:58:43;7.10;;;3.95;;
68072;SDS011;54862;51.502;7.446;2022-07-12T08:01:09;11.57;;;4.43;;
68072;SDS011;54862;51.502;7.446;2022-07-12T08:03:35;8.77;;;3.90;;
68072;SDS011;54862;51.502;7.446;2022-07-12T08:06:01;7.40;;;3.45;;
68072;SDS011;54862;51.502;7.446;2022-07-12T08:08:27;6.30;;;3.35;;
68072;SDS011;54862;51.502;7.446;2022-07-12T08:10:53;5.47;;;3.20;;
68072;SDS011;54862;51.502;7.446;2022-07-12T08:13:19;6.45;;;2.90;;
68072;SDS011;54862;51.502;7.446;2022-07-12T08:15:45;6.00;;;3.17;;
68072;SDS011;54862;51.502;7.446;2022-07-12T08:18:12;8.00;;;3.53;;
68072;SDS011;54862;51.502;7.446;2022-07-12T08:20:38;6.25;;;3.03;;
68072;SDS011;54862;51.502;7.446;2022-07-12T08:23:04;5.10;;;2.90;;
68072;SDS011;54862;51.502;7.446;2022-07-12T08:25:30;4.85;;;2.40;;
68072;SDS011;54862;51.502;7.446;2022-07-12T08:27:56;8.48;;;2.80;;
68072;SDS011;54862;51.502;7.446;2022-07-12T08:30:22;6.32;;;2.80;;
68072;SDS011;54862;51.502;7.446;2022-07-12T08:32:48;7.45;;;2.65;;
68072;SDS011;54862;51.502;7.446;2022-07-12T08:35:14;4.78;;;2.58;;
68072;SDS011;54862;51.502;7.446;2022-07-12T08:37:40;4.68;;;2.30;;
68072;SDS011;54862;51.502;7.446;2022-07-12T08:40:07;9.05;;;2.80;;
68072;SDS011;54862;51.502;7.446;2022-07-12T08:42:33;4.78;;;2.20;;
68072;SDS011;54862;51.502;7.446;2022-07-12T08:44:59;6.63;;;2.92;;
68072;SDS011;54862;51.502;7.446;2022-07-12T08:47:25;5.55;;;2.40;;
68072;SDS011;54862;51.502;7.446;2022-07-12T08:52:40;6.00;;;2.50;;
68072;SDS011;54862;51.502;7.446;2022-07-12T08:57:44;7.32;;;2.95;;
68072;SDS011;54862;51.502;7.446;2022-07-12T09:00:11;3.90;;;2.40;;
68072;SDS011;54862;51.502;7.446;2022-07-12T09:05:10;3.22;;;2.22;;
68072;SDS011;54862;51.502;7.446;2022-07-12T09:07:37;5.00;;;2.47;;
68072;SDS011;54862;51.502;7.446;2022-07-12T09:10:06;4.10;;;2.38;;
68072;SDS011;54862;51.502;7.446;2022-07-12T09:12:33;5.07;;;2.53;;
68072;SDS011;54862;51.502;7.446;2022-07-12T09:17:38;3.38;;;2.20;;
68072;SDS011;54862;51.502;7.446;2022-07-12T09:20:04;4.40;;;2.40;;
68072;SDS011;54862;51.502;7.446;2022-07-12T09:22:30;7.93;;;2.35;;
68072;SDS011;54862;51.502;7.446;2022-07-12T09:24:56;5.60;;;2.10;;
68072;SDS011;54862;51.502;7.446;2022-07-12T09:27:25;5.40;;;2.10;;
68072;SDS011;54862;51.502;7.446;2022-07-12T09:29:51;4.18;;;2.10;;
68072;SDS011;54862;51.502;7.446;2022-07-12T09:32:17;6.45;;;2.25;;
68072;SDS011;54862;51.502;7.446;2022-07-12T09:35:03;1.90;;;1.70;;
68072;SDS011;54862;51.502;7.446;2022-07-12T09:37:47;4.90;;;2.13;;
68072;SDS011;54862;51.502;7.446;2022-07-12T09:40:14;5.03;;;1.90;;
68072;SDS011;54862;51.502;7.446;2022-07-12T09:42:40;3.47;;;1.70;;
68072;SDS011;54862;51.502;7.446;2022-07-12T09:45:09;2.33;;;1.70;;
68072;SDS011;54862;51.502;7.446;2022-07-12T09:47:36;4.53;;;2.72;;
68072;SDS011;54862;51.502;7.446;2022-07-12T09:50:05;3.05;;;1.73;;
68072;SDS011;54862;51.502;7.446;2022-07-12T09:52:32;4.57;;;1.70;;
68072;SDS011;54862;51.502;7.446;2022-07-12T09:55:01;4.18;;;1.95;;
68072;SDS011;54862;51.502;7.446;2022-07-12T09:57:32;2.97;;;1.70;;
68072;SDS011;54862;51.502;7.446;2022-07-12T09:59:59;6.35;;;1.70;;
68072;SDS011;54862;51.502;7.446;2022-07-12T10:02:25;2.53;;;1.75;;
68072;SDS011;54862;51.502;7.446;2022-07-12T10:04:52;6.68;;;1.90;;
68072;SDS011;54862;51.502;7.446;2022-07-12T10:07:18;2.97;;;1.70;;
68072;SDS011;54862;51.502;7.446;2022-07-12T10:09:51;1.65;;;1.55;;
68072;SDS011;54862;51.502;7.446;2022-07-12T10:14:43;3.35;;;1.90;;
68072;SDS011;54862;51.502;7.446;2022-07-12T10:17:10;3.28;;;1.65;;
68072;SDS011;54862;51.502;7.446;2022-07-12T10:19:37;4.68;;;1.70;;
68072;SDS011;54862;51.502;7.446;2022-07-12T10:22:04;2.72;;;1.70;;
68072;SDS011;54862;51.502;7.446;2022-07-12T10:29:49;1.95;;;1.60;;
68072;SDS011;54862;51.502;7.446;2022-07-12T10:34:59;4.15;;;1.67;;
68072;SDS011;54862;51.502;7.446;2022-07-12T10:37:25;27.90;;;3.65;;
68072;SDS011;54862;51.502;7.446;2022-07-12T10:42:36;16.02;;;2.83;;
68072;SDS011;54862;51.502;7.446;2022-07-12T10:45:12;3.58;;;1.70;;
68072;SDS011;54862;51.502;7.446;2022-07-12T10:47:53;4.22;;;1.80;;
68072;SDS011;54862;51.502;7.446;2022-07-12T10:50:33;12.98;;;2.80;;
68072;SDS011;54862;51.502;7.446;2022-07-12T11:00:58;3.72;;;1.70;;
68072;SDS011;54862;51.502;7.446;2022-07-12T11:03:44;2.50;;;1.60;;
68072;SDS011;54862;51.502;7.446;2022-07-12T11:06:15;1.50;;;1.40;;
68072;SDS011;54862;51.502;7.446;2022-07-12T11:08:48;3.45;;;1.65;;
68072;SDS011;54862;51.502;7.446;2022-07-12T11:11:14;3.50;;;1.92;;
68072;SDS011;54862;51.502;7.446;2022-07-12T11:13:40;2.80;;;1.70;;
68072;SDS011;54862;51.502;7.446;2022-07-12T11:16:06;2.45;;;1.70;;
68072;SDS011;54862;51.502;7.446;2022-07-12T11:18:33;2.85;;;1.70;;
68072;SDS011;54862;51.502;7.446;2022-07-12T11:21:00;3.20;;;1.40;;
68072;SDS011;54862;51.502;7.446;2022-07-12T11:23:27;2.05;;;1.60;;
68072;SDS011;54862;51.502;7.446;2022-07-12T11:25:54;2.05;;;1.58;;
68072;SDS011;54862;51.502;7.446;2022-07-12T11:28:20;3.15;;;1.80;;
68072;SDS011;54862;51.502;7.446;2022-07-12T11:30:52;3.40;;;1.50;;
68072;SDS011;54862;51.502;7.446;2022-07-12T11:33:21;2.15;;;1.55;;
68072;SDS011;54862;51.502;7.446;2022-07-12T11:35:50;2.85;;;1.65;;
68072;SDS011;54862;51.502;7.446;2022-07-12T11:38:23;3.55;;;1.60;;
68072;SDS011;54862;51.502;7.446;2022-07-12T11:43:15;2.58;;;1.40;;
68072;SDS011;54862;51.502;7.446;2022-07-12T11:45:41;2.75;;;1.50;;
68072;SDS011;54862;51.502;7.446;2022-07-12T11:48:07;6.28;;;1.77;;
68072;SDS011;54862;51.502;7.446;2022-07-12T11:50:33;5.47;;;1.60;;
68072;SDS011;54862;51.502;7.446;2022-07-12T11:52:59;1.85;;;1.48;;
68072;SDS011;54862;51.502;7.446;2022-07-12T11:55:25;2.63;;;1.63;;
68072;SDS011;54862;51.502;7.446;2022-07-12T11:58:02;4.95;;;1.60;;
68072;SDS011;54862;51.502;7.446;2022-07-12T12:00:29;2.45;;;1.50;;
68072;SDS011;54862;51.502;7.446;2022-07-12T12:02:55;2.25;;;1.60;;
68072;SDS011;54862;51.502;7.446;2022-07-12T12:05:21;2.65;;;1.60;;
68072;SDS011;54862;51.502;7.446;2022-07-12T12:07:47;4.35;;;1.70;;
68072;SDS011;54862;51.502;7.446;2022-07-12T12:10:14;2.50;;;1.55;;
68072;SDS011;54862;51.502;7.446;2022-07-12T12:15:07;1.52;;;1.42;;
68072;SDS011;54862;51.502;7.446;2022-07-12T12:17:34;1.52;;;1.40;;
68072;SDS011;54862;51.502;7.446;2022-07-12T12:20:14;3.03;;;1.40;;
68072;SDS011;54862;51.502;7.446;2022-07-12T12:22:41;3.70;;;1.73;;
68072;SDS011;54862;51.502;7.446;2022-07-12T12:25:08;2.70;;;1.50;;
68072;SDS011;54862;51.502;7.446;2022-07-12T12:30:34;2.20;;;1.40;;
68072;SDS011;54862;51.502;7.446;2022-07-12T12:33:02;3.20;;;1.80;;
68072;SDS011;54862;51.502;7.446;2022-07-12T12:35:36;2.40;;;1.60;;
68072;SDS011;54862;51.502;7.446;2022-07-12T12:38:03;2.03;;;1.30;;
68072;SDS011;54862;51.502;7.446;2022-07-12T12:40:30;2.72;;;1.40;;
68072;SDS011;54862;51.502;7.446;2022-07-12T12:43:07;1.40;;;1.30;;
68072;SDS011;54862;51.502;7.446;2022-07-12T12:45:33;2.83;;;1.60;;
68072;SDS011;54862;51.502;7.446;2022-07-12T12:48:00;1.95;;;1.30;;
68072;SDS011;54862;51.502;7.446;2022-07-12T12:50:46;1.40;;;1.30;;
68072;SDS011;54862;51.502;7.446;2022-07-12T12:53:14;3.05;;;1.35;;
68072;SDS011;54862;51.502;7.446;2022-07-12T12:55:41;2.53;;;1.55;;
68072;SDS011;54862;51.502;7.446;2022-07-12T12:58:08;2.97;;;1.35;;
68072;SDS011;54862;51.502;7.446;2022-07-12T13:00:35;1.50;;;1.40;;
68072;SDS011;54862;51.502;7.446;2022-07-12T13:03:02;2.95;;;1.70;;
68072;SDS011;54862;51.502;7.446;2022-07-12T13:05:28;1.50;;;1.40;;
68072;SDS011;54862;51.502;7.446;2022-07-12T13:07:55;3.13;;;1.60;;
68072;SDS011;54862;51.502;7.446;2022-07-12T13:10:22;3.08;;;1.60;;
68072;SDS011;54862;51.502;7.446;2022-07-12T13:12:48;1.55;;;1.30;;
68072;SDS011;54862;51.502;7.446;2022-07-12T13:15:15;1.42;;;1.30;;
68072;SDS011;54862;51.502;7.446;2022-07-12T13:17:41;1.20;;;1.20;;
68072;SDS011;54862;51.502;7.446;2022-07-12T13:20:07;1.80;;;1.40;;
68072;SDS011;54862;51.502;7.446;2022-07-12T13:22:33;1.88;;;1.45;;
68072;SDS011;54862;51.502;7.446;2022-07-12T13:24:59;1.88;;;1.50;;
68072;SDS011;54862;51.502;7.446;2022-07-12T13:27:26;1.50;;;1.40;;
68072;SDS011;54862;51.502;7.446;2022-07-12T13:29:53;2.42;;;1.40;;
68072;SDS011;54862;51.502;7.446;2022-07-12T13:32:19;2.75;;;1.70;;
68072;SDS011;54862;51.502;7.446;2022-07-12T13:34:48;1.58;;;1.48;;
68072;SDS011;54862;51.502;7.446;2022-07-12T13:37:14;2.90;;;1.75;;
68072;SDS011;54862;51.502;7.446;2022-07-12T13:39:40;1.38;;;1.30;;
68072;SDS011;54862;51.502;7.446;2022-07-12T13:42:25;3.63;;;1.90;;
68072;SDS011;54862;51.502;7.446;2022-07-12T13:44:52;1.50;;;1.40;;
68072;SDS011;54862;51.502;7.446;2022-07-12T13:47:21;2.90;;;1.42;;
68072;SDS011;54862;51.502;7.446;2022-07-12T13:49:47;2.13;;;1.42;;
68072;SDS011;54862;51.502;7.446;2022-07-12T13:52:14;2.17;;;1.48;;
68072;SDS011;54862;51.502;7.446;2022-07-12T13:54:40;1.98;;;1.40;;
68072;SDS011;54862;51.502;7.446;2022-07-12T13:57:08;2.38;;;1.60;;
68072;SDS011;54862;51.502;7.446;2022-07-12T13:59:34;2.40;;;1.55;;
68072;SDS011;54862;51.502;7.446;2022-07-12T14:02:00;5.55;;;1.50;;
68072;SDS011;54862;51.502;7.446;2022-07-12T14:04:26;1.92;;;1.60;;
68072;SDS011;54862;51.502;7.446;2022-07-12T14:06:52;2.53;;;1.60;;
68072;SDS011;54862;51.502;7.446;2022-07-12T14:09:18;2.53;;;1.60;;
68072;SDS011;54862;51.502;7.446;2022-07-12T14:11:44;3.70;;;1.58;;
68072;SDS011;54862;51.502;7.446;2022-07-12T14:14:10;3.90;;;1.67;;
68072;SDS011;54862;51.502;7.446;2022-07-12T14:16:36;3.38;;;1.58;;
68072;SDS011;54862;51.502;7.446;2022-07-12T14:19:02;3.25;;;1.60;;
68072;SDS011;54862;51.502;7.446;2022-07-12T14:21:28;4.55;;;1.58;;
68072;SDS011;54862;51.502;7.446;2022-07-12T14:23:55;4.28;;;1.70;;
68072;SDS011;54862;51.502;7.446;2022-07-12T14:26:26;1.65;;;1.55;;
68072;SDS011;54862;51.502;7.446;2022-07-12T14:28:52;3.53;;;1.50;;
68072;SDS011;54862;51.502;7.446;2022-07-12T14:31:19;2.08;;;1.70;;
68072;SDS011;54862;51.502;7.446;2022-07-12T14:33:45;2.63;;;1.67;;
68072;SDS011;54862;51.502;7.446;2022-07-12T14:36:11;3.17;;;1.58;;
68072;SDS011;54862;51.502;7.446;2022-07-12T14:38:37;3.35;;;1.52;;
68072;SDS011;54862;51.502;7.446;2022-07-12T14:41:03;3.03;;;1.73;;
68072;SDS011;54862;51.502;7.446;2022-07-12T14:43:29;2.20;;;1.50;;
68072;SDS011;54862;51.502;7.446;2022-07-12T14:45:55;2.13;;;1.63;;
68072;SDS011;54862;51.502;7.446;2022-07-12T14:48:21;2.08;;;1.50;;
68072;SDS011;54862;51.502;7.446;2022-07-12T14:50:47;3.22;;;1.50;;
68072;SDS011;54862;51.502;7.446;2022-07-12T14:53:13;2.17;;;1.40;;
68072;SDS011;54862;51.502;7.446;2022-07-12T14:55:39;1.60;;;1.50;;
68072;SDS011;54862;51.502;7.446;2022-07-12T14:58:05;2.97;;;1.52;;
68072;SDS011;54862;51.502;7.446;2022-07-12T15:00:35;2.35;;;1.60;;
68072;SDS011;54862;51.502;7.446;2022-07-12T15:03:01;1.50;;;1.40;;
68072;SDS011;54862;51.502;7.446;2022-07-12T15:05:27;5.00;;;1.63;;
68072;SDS011;54862;51.502;7.446;2022-07-12T15:07:54;1.75;;;1.50;;
68072;SDS011;54862;51.502;7.446;2022-07-12T15:10:20;2.35;;;1.52;;
68072;SDS011;54862;51.502;7.446;2022-07-12T15:12:46;2.25;;;1.50;;
68072;SDS011;54862;51.502;7.446;2022-07-12T15:15:12;2.13;;;1.60;;
68072;SDS011;54862;51.502;7.446;2022-07-12T15:17:38;3.42;;;1.60;;
68072;SDS011;54862;51.502;7.446;2022-07-12T15:20:04;2.60;;;1.50;;
68072;SDS011;54862;51.502;7.446;2022-07-12T15:22:31;2.72;;;1.70;;
68072;SDS011;54862;51.502;7.446;2022-07-12T15:24:57;2.60;;;1.55;;
68072;SDS011;54862;51.502;7.446;2022-07-12T15:27:23;2.38;;;1.50;;